sensor_id;sensor_type;location;lat;lon;timestamp;pressure;altitude;pressure_sealevel;temperature;humidity
72802;BME280;61891;55.818;37.084;2023-08-06T00:00:19;99824.78;;;22.26;58.34
72802;BME280;61891;55.818;37.084;2023-08-06T00:02:45;99758.69;;;21.86;58.37
72802;BME280;61891;55.818;37.084;2023-08-06T00:05:11;99788.78;;;22.02;58.16
72802;BME280;61891;55.818;37.084;2023-08-06T00:07:37;99816.78;;;22.19;59.10
72802;BME280;61891;55.818;37.084;2023-08-06T00:10:03;99781.59;;;21.96;58.05
72802;BME280;61891;55.818;37.084;2023-08-06T00:12:29;99791.47;;;22.02;58.26
72802;BME280;61891;55.818;37.084;2023-08-06T00:14:55;99813.72;;;22.15;59.54
72802;BME280;61891;55.818;37.084;2023-08-06T00:17:21;99819.38;;;22.14;58.53
72802;BME280;61891;55.818;37.084;2023-08-06T00:19:46;99814.41;;;22.11;59.59
72802;BME280;61891;55.818;37.084;2023-08-06T00:22:12;99819.47;;;22.07;58.56
72802;BME280;61891;55.818;37.084;2023-08-06T00:24:37;99823.44;;;22.05;59.24
72802;BME280;61891;55.818;37.084;2023-08-06T00:27:03;99822.22;;;22.01;58.34
72802;BME280;61891;55.818;37.084;2023-08-06T00:29:30;99815.63;;;21.97;58.67
72802;BME280;61891;55.818;37.084;2023-08-06T00:31:56;99828.91;;;21.98;58.32
72802;BME280;61891;55.818;37.084;2023-08-06T00:34:21;99822.09;;;21.96;59.89
72802;BME280;61891;55.818;37.084;2023-08-06T00:36:47;99788.44;;;21.68;58.57
72802;BME280;61891;55.818;37.084;2023-08-06T00:39:13;99822.19;;;21.89;58.74
72802;BME280;61891;55.818;37.084;2023-08-06T00:41:39;99793.22;;;21.66;58.78
72802;BME280;61891;55.818;37.084;2023-08-06T00:44:05;99827.34;;;21.91;60.11
72802;BME280;61891;55.818;37.084;2023-08-06T00:46:32;99807.00;;;21.76;58.85
72802;BME280;61891;55.818;37.084;2023-08-06T00:48:59;99809.09;;;21.74;59.05
72802;BME280;61891;55.818;37.084;2023-08-06T00:51:25;99828.28;;;21.84;59.11
72802;BME280;61891;55.818;37.084;2023-08-06T00:53:52;99823.31;;;21.81;59.39
72802;BME280;61891;55.818;37.084;2023-08-06T00:56:18;99832.94;;;21.77;59.23
72802;BME280;61891;55.818;37.084;2023-08-06T00:58:45;99797.44;;;21.62;59.15
72802;BME280;61891;55.818;37.084;2023-08-06T01:01:12;99788.75;;;21.60;59.37
72802;BME280;61891;55.818;37.084;2023-08-06T01:03:38;99778.28;;;21.52;59.12
72802;BME280;61891;55.818;37.084;2023-08-06T01:06:04;99827.31;;;21.79;59.16
72802;BME280;61891;55.818;37.084;2023-08-06T01:08:49;99820.50;;;21.76;59.85
72802;BME280;61891;55.818;37.084;2023-08-06T01:14:02;99820.00;;;21.68;59.85
72802;BME280;61891;55.818;37.084;2023-08-06T01:16:33;99789.06;;;21.52;60.02
72802;BME280;61891;55.818;37.084;2023-08-06T01:18:59;99781.50;;;21.42;59.41
72802;BME280;61891;55.818;37.084;2023-08-06T01:21:24;99825.16;;;21.69;60.66
72802;BME280;61891;55.818;37.084;2023-08-06T01:23:50;99818.56;;;21.65;59.53
72802;BME280;61891;55.818;37.084;2023-08-06T01:31:35;99793.44;;;21.35;59.74
72802;BME280;61891;55.818;37.084;2023-08-06T01:34:03;99827.19;;;21.55;59.94
72802;BME280;61891;55.818;37.084;2023-08-06T01:36:30;99794.94;;;21.31;59.34
72802;BME280;61891;55.818;37.084;2023-08-06T01:38:59;99795.75;;;21.31;59.78
72802;BME280;61891;55.818;37.084;2023-08-06T01:41:25;99801.97;;;21.32;60.03
72802;BME280;61891;55.818;37.084;2023-08-06T01:43:51;99834.91;;;21.52;60.55
72802;BME280;61891;55.818;37.084;2023-08-06T01:46:16;99834.91;;;21.52;59.61
72802;BME280;61891;55.818;37.084;2023-08-06T01:48:43;99825.72;;;21.41;59.62
72802;BME280;61891;55.818;37.084;2023-08-06T01:51:09;99844.28;;;21.49;60.53
72802;BME280;61891;55.818;37.084;2023-08-06T01:53:35;99850.28;;;21.51;59.76
72802;BME280;61891;55.818;37.084;2023-08-06T01:56:01;99848.19;;;21.53;61.00
72802;BME280;61891;55.818;37.084;2023-08-06T01:58:27;99825.94;;;21.40;60.14
72802;BME280;61891;55.818;37.084;2023-08-06T02:00:52;99844.22;;;21.56;60.72
72802;BME280;61891;55.818;37.084;2023-08-06T02:03:18;99838.22;;;21.54;59.92
72802;BME280;61891;55.818;37.084;2023-08-06T02:05:44;99839.88;;;21.55;60.89
72802;BME280;61891;55.818;37.084;2023-08-06T02:08:11;99824.91;;;21.41;59.61
72802;BME280;61891;55.818;37.084;2023-08-06T02:10:36;99854.41;;;21.54;60.60
72802;BME280;61891;55.818;37.084;2023-08-06T02:13:02;99852.75;;;21.53;59.60
72802;BME280;61891;55.818;37.084;2023-08-06T02:15:28;99856.06;;;21.55;61.18
72802;BME280;61891;55.818;37.084;2023-08-06T02:17:53;99845.34;;;21.48;60.11
72802;BME280;61891;55.818;37.084;2023-08-06T02:20:39;99830.88;;;21.43;59.54
72802;BME280;61891;55.818;37.084;2023-08-06T02:23:04;99857.03;;;21.61;61.01
72802;BME280;61891;55.818;37.084;2023-08-06T02:25:30;99861.13;;;21.63;59.96
72802;BME280;61891;55.818;37.084;2023-08-06T02:27:56;99860.69;;;21.66;60.73
72802;BME280;61891;55.818;37.084;2023-08-06T02:30:21;99860.09;;;21.64;60.23
72802;BME280;61891;55.818;37.084;2023-08-06T02:32:47;99860.84;;;21.71;60.80
72802;BME280;61891;55.818;37.084;2023-08-06T02:35:13;99846.38;;;21.66;59.83
72802;BME280;61891;55.818;37.084;2023-08-06T02:37:38;99861.66;;;21.72;60.64
72802;BME280;61891;55.818;37.084;2023-08-06T02:40:04;99863.06;;;21.74;60.17
72802;BME280;61891;55.818;37.084;2023-08-06T02:42:31;99859.91;;;21.77;59.69
72802;BME280;61891;55.818;37.084;2023-08-06T02:44:57;99840.88;;;21.72;60.18
72802;BME280;61891;55.818;37.084;2023-08-06T02:47:23;99867.94;;;21.84;60.97
72802;BME280;61891;55.818;37.084;2023-08-06T02:49:49;99848.06;;;21.78;59.76
72802;BME280;61891;55.818;37.084;2023-08-06T02:52:15;99864.09;;;21.92;60.62
72802;BME280;61891;55.818;37.084;2023-08-06T02:54:41;99866.94;;;21.97;59.87
72802;BME280;61891;55.818;37.084;2023-08-06T02:57:07;99855.69;;;22.00;59.41
72802;BME280;61891;55.818;37.084;2023-08-06T02:59:34;99832.97;;;21.89;59.53
72802;BME280;61891;55.818;37.084;2023-08-06T03:02:07;99811.63;;;21.87;59.56
72802;BME280;61891;55.818;37.084;2023-08-06T03:04:53;99856.13;;;22.15;59.95
72802;BME280;61891;55.818;37.084;2023-08-06T03:07:22;99849.19;;;22.19;59.52
72802;BME280;61891;55.818;37.084;2023-08-06T03:09:54;99854.72;;;22.24;59.86
72802;BME280;61891;55.818;37.084;2023-08-06T03:12:20;99802.06;;;22.03;59.91
72802;BME280;61891;55.818;37.084;2023-08-06T03:14:47;99786.06;;;22.02;59.35
72802;BME280;61891;55.818;37.084;2023-08-06T03:17:15;99850.31;;;22.41;59.49
72802;BME280;61891;55.818;37.084;2023-08-06T03:19:42;99854.78;;;22.47;59.72
72802;BME280;61891;55.818;37.084;2023-08-06T03:22:08;99814.81;;;22.26;59.22
72802;BME280;61891;55.818;37.084;2023-08-06T03:24:35;99850.22;;;22.60;59.12
72802;BME280;61891;55.818;37.084;2023-08-06T03:27:01;99825.28;;;22.46;58.97
72802;BME280;61891;55.818;37.084;2023-08-06T03:29:27;99810.97;;;22.45;59.06
72802;BME280;61891;55.818;37.084;2023-08-06T03:31:57;99846.69;;;22.71;59.39
72802;BME280;61891;55.818;37.084;2023-08-06T03:34:23;99810.97;;;22.57;59.01
72802;BME280;61891;55.818;37.084;2023-08-06T03:36:50;99816.63;;;22.67;58.77
72802;BME280;61891;55.818;37.084;2023-08-06T03:39:15;99850.97;;;23.02;59.58
72802;BME280;61891;55.818;37.084;2023-08-06T03:41:41;99853.78;;;23.07;58.60
72802;BME280;61891;55.818;37.084;2023-08-06T03:44:07;99858.59;;;23.17;58.49
72802;BME280;61891;55.818;37.084;2023-08-06T03:46:33;99755.63;;;22.60;58.76
72802;BME280;61891;55.818;37.084;2023-08-06T03:49:01;99823.81;;;23.08;58.57
72802;BME280;61891;55.818;37.084;2023-08-06T03:53:54;99853.03;;;23.46;58.21
72802;BME280;61891;55.818;37.084;2023-08-06T03:56:20;99855.59;;;23.53;58.04
72802;BME280;61891;55.818;37.084;2023-08-06T03:58:46;99857.13;;;23.61;58.18
72802;BME280;61891;55.818;37.084;2023-08-06T04:01:12;99852.66;;;23.66;57.68
72802;BME280;61891;55.818;37.084;2023-08-06T04:03:42;99828.53;;;23.65;58.18
72802;BME280;61891;55.818;37.084;2023-08-06T04:06:08;99808.66;;;23.59;57.67
72802;BME280;61891;55.818;37.084;2023-08-06T04:08:36;99840.75;;;23.96;57.33
72802;BME280;61891;55.818;37.084;2023-08-06T04:11:02;99838.16;;;24.01;57.31
72802;BME280;61891;55.818;37.084;2023-08-06T04:13:29;99834.72;;;24.05;57.47
72802;BME280;61891;55.818;37.084;2023-08-06T04:16:01;99839.50;;;24.15;57.25
72802;BME280;61891;55.818;37.084;2023-08-06T04:18:28;99836.75;;;24.27;56.69
72802;BME280;61891;55.818;37.084;2023-08-06T04:20:55;99815.78;;;24.22;56.87
72802;BME280;61891;55.818;37.084;2023-08-06T04:23:23;99843.66;;;24.51;56.63
72802;BME280;61891;55.818;37.084;2023-08-06T04:25:51;99823.78;;;24.46;56.95
72802;BME280;61891;55.818;37.084;2023-08-06T04:28:16;99848.34;;;24.72;56.56
72802;BME280;61891;55.818;37.084;2023-08-06T04:30:42;99856.88;;;24.81;56.26
72802;BME280;61891;55.818;37.084;2023-08-06T04:33:08;99850.22;;;24.89;56.35
72802;BME280;61891;55.818;37.084;2023-08-06T04:35:35;99851.47;;;24.98;55.93
72802;BME280;61891;55.818;37.084;2023-08-06T04:38:01;99814.56;;;24.80;55.73
72802;BME280;61891;55.818;37.084;2023-08-06T04:40:27;99853.50;;;25.08;55.02
72802;BME280;61891;55.818;37.084;2023-08-06T04:42:54;99855.72;;;25.11;54.88
72802;BME280;61891;55.818;37.084;2023-08-06T04:45:20;99856.84;;;25.15;55.12
72802;BME280;61891;55.818;37.084;2023-08-06T04:47:46;99849.69;;;25.25;54.91
72802;BME280;61891;55.818;37.084;2023-08-06T04:50:11;99859.53;;;25.31;54.67
72802;BME280;61891;55.818;37.084;2023-08-06T04:52:37;99852.59;;;25.41;54.78
72802;BME280;61891;55.818;37.084;2023-08-06T04:55:03;99807.84;;;25.21;54.42
72802;BME280;61891;55.818;37.084;2023-08-06T04:57:31;99834.97;;;25.43;54.48
72802;BME280;61891;55.818;37.084;2023-08-06T04:59:57;99854.84;;;25.65;53.96
72802;BME280;61891;55.818;37.084;2023-08-06T05:02:22;99853.00;;;25.71;53.83
72802;BME280;61891;55.818;37.084;2023-08-06T05:04:50;99841.94;;;25.78;53.66
72802;BME280;61891;55.818;37.084;2023-08-06T05:07:15;99810.38;;;25.72;53.96
72802;BME280;61891;55.818;37.084;2023-08-06T05:09:41;99835.47;;;25.84;53.11
72802;BME280;61891;55.818;37.084;2023-08-06T05:12:07;99840.59;;;26.02;52.92
72802;BME280;61891;55.818;37.084;2023-08-06T05:14:33;99844.75;;;26.10;53.08
72802;BME280;61891;55.818;37.084;2023-08-06T05:16:59;99849.47;;;26.19;52.84
72802;BME280;61891;55.818;37.084;2023-08-06T05:19:24;99844.38;;;26.28;53.04
72802;BME280;61891;55.818;37.084;2023-08-06T05:21:50;99842.03;;;26.37;52.64
72802;BME280;61891;55.818;37.084;2023-08-06T05:24:16;99844.28;;;26.45;52.42
72802;BME280;61891;55.818;37.084;2023-08-06T05:26:42;99843.50;;;26.49;52.16
72802;BME280;61891;55.818;37.084;2023-08-06T05:29:07;99795.19;;;26.29;52.02
72802;BME280;61891;55.818;37.084;2023-08-06T05:31:33;99837.88;;;26.61;51.78
72802;BME280;61891;55.818;37.084;2023-08-06T05:33:59;99834.72;;;26.74;51.70
72802;BME280;61891;55.818;37.084;2023-08-06T05:36:25;99828.50;;;26.79;51.67
72802;BME280;61891;55.818;37.084;2023-08-06T05:38:50;99836.00;;;26.99;51.44
72802;BME280;61891;55.818;37.084;2023-08-06T05:41:16;99836.88;;;27.09;51.44
72802;BME280;61891;55.818;37.084;2023-08-06T05:43:42;99842.09;;;27.16;50.88
72802;BME280;61891;55.818;37.084;2023-08-06T05:46:08;99816.22;;;27.13;51.12
72802;BME280;61891;55.818;37.084;2023-08-06T05:48:33;99830.47;;;27.31;50.97
72802;BME280;61891;55.818;37.084;2023-08-06T05:50:59;99802.69;;;27.28;51.02
72802;BME280;61891;55.818;37.084;2023-08-06T05:53:25;99832.81;;;27.64;50.29
72802;BME280;61891;55.818;37.084;2023-08-06T05:55:51;99825.44;;;27.65;50.41
72802;BME280;61891;55.818;37.084;2023-08-06T05:58:16;99830.41;;;27.78;50.30
72802;BME280;61891;55.818;37.084;2023-08-06T06:00:43;99822.78;;;27.85;50.09
72802;BME280;61891;55.818;37.084;2023-08-06T06:03:09;99796.06;;;27.72;49.81
72802;BME280;61891;55.818;37.084;2023-08-06T06:05:37;99809.16;;;27.90;49.57
72802;BME280;61891;55.818;37.084;2023-08-06T06:08:03;99810.25;;;27.94;49.59
72802;BME280;61891;55.818;37.084;2023-08-06T06:10:29;99820.66;;;28.17;49.55
72802;BME280;61891;55.818;37.084;2023-08-06T06:12:54;99825.88;;;28.34;49.16
72802;BME280;61891;55.818;37.084;2023-08-06T06:15:20;99816.88;;;28.44;49.11
72802;BME280;61891;55.818;37.084;2023-08-06T06:17:46;99807.59;;;28.45;48.45
72802;BME280;61891;55.818;37.084;2023-08-06T06:20:12;99807.59;;;28.50;48.47
72802;BME280;61891;55.818;37.084;2023-08-06T06:22:37;99802.69;;;28.52;48.27
72802;BME280;61891;55.818;37.084;2023-08-06T06:25:03;99796.97;;;28.53;48.62
72802;BME280;61891;55.818;37.084;2023-08-06T06:27:29;99816.56;;;28.81;48.35
72802;BME280;61891;55.818;37.084;2023-08-06T06:29:55;99822.84;;;28.97;48.22
72802;BME280;61891;55.818;37.084;2023-08-06T06:32:21;99814.09;;;29.05;47.96
72802;BME280;61891;55.818;37.084;2023-08-06T06:34:47;99812.72;;;29.07;47.93
72802;BME280;61891;55.818;37.084;2023-08-06T06:37:13;99814.59;;;29.22;47.87
72802;BME280;61891;55.818;37.084;2023-08-06T06:39:39;99811.25;;;29.35;47.32
72802;BME280;61891;55.818;37.084;2023-08-06T06:42:04;99806.56;;;29.51;47.50
72802;BME280;61891;55.818;37.084;2023-08-06T06:44:36;99795.59;;;29.61;47.42
72802;BME280;61891;55.818;37.084;2023-08-06T06:47:02;99793.38;;;29.63;46.65
72802;BME280;61891;55.818;37.084;2023-08-06T06:49:28;99814.91;;;29.75;46.51
72802;BME280;61891;55.818;37.084;2023-08-06T06:51:54;99808.06;;;29.77;45.53
72802;BME280;61891;55.818;37.084;2023-08-06T06:54:19;99811.63;;;29.78;45.08
72802;BME280;61891;55.818;37.084;2023-08-06T06:56:45;99793.38;;;29.68;44.53
72802;BME280;61891;55.818;37.084;2023-08-06T06:59:11;99801.50;;;29.78;44.60
72802;BME280;61891;55.818;37.084;2023-08-06T07:01:37;99813.47;;;29.88;44.82
72802;BME280;61891;55.818;37.084;2023-08-06T07:04:02;99803.88;;;29.90;44.45
72802;BME280;61891;55.818;37.084;2023-08-06T07:06:31;99805.44;;;30.06;43.87
72802;BME280;61891;55.818;37.084;2023-08-06T07:08:57;99811.34;;;30.24;44.27
72802;BME280;61891;55.818;37.084;2023-08-06T07:11:23;99801.97;;;30.30;43.72
72802;BME280;61891;55.818;37.084;2023-08-06T07:13:49;99781.00;;;30.20;42.90
72802;BME280;61891;55.818;37.084;2023-08-06T07:16:15;99798.25;;;30.50;43.18
72802;BME280;61891;55.818;37.084;2023-08-06T07:18:41;99787.88;;;30.46;43.08
72802;BME280;61891;55.818;37.084;2023-08-06T07:21:07;99804.44;;;30.65;43.08
72802;BME280;61891;55.818;37.084;2023-08-06T07:23:33;99807.06;;;30.75;43.18
72802;BME280;61891;55.818;37.084;2023-08-06T07:25:58;99771.59;;;30.65;42.95
72802;BME280;61891;55.818;37.084;2023-08-06T07:28:24;99790.25;;;30.87;42.91
72802;BME280;61891;55.818;37.084;2023-08-06T07:30:50;99799.16;;;30.98;42.65
72802;BME280;61891;55.818;37.084;2023-08-06T07:33:16;99799.69;;;31.00;41.75
72802;BME280;61891;55.818;37.084;2023-08-06T07:35:42;99795.91;;;30.96;41.60
72802;BME280;61891;55.818;37.084;2023-08-06T07:38:09;99790.97;;;30.98;41.42
72802;BME280;61891;55.818;37.084;2023-08-06T07:40:36;99793.94;;;31.01;41.58
72802;BME280;61891;55.818;37.084;2023-08-06T07:43:03;99799.25;;;31.17;41.17
72802;BME280;61891;55.818;37.084;2023-08-06T07:45:33;99726.53;;;30.82;40.65
72802;BME280;61891;55.818;37.084;2023-08-06T07:47:59;99802.31;;;31.39;40.37
72802;BME280;61891;55.818;37.084;2023-08-06T07:50:25;99785.22;;;31.47;40.44
72802;BME280;61891;55.818;37.084;2023-08-06T07:52:50;99790.25;;;31.59;40.65
72802;BME280;61891;55.818;37.084;2023-08-06T07:55:16;99784.78;;;31.59;40.32
72802;BME280;61891;55.818;37.084;2023-08-06T07:57:42;99781.38;;;31.67;39.52
72802;BME280;61891;55.818;37.084;2023-08-06T08:00:08;99775.31;;;31.70;39.61
72802;BME280;61891;55.818;37.084;2023-08-06T08:02:39;99767.53;;;31.77;39.27
72802;BME280;61891;55.818;37.084;2023-08-06T08:05:05;99788.72;;;31.90;39.36
72802;BME280;61891;55.818;37.084;2023-08-06T08:07:32;99779.09;;;31.93;39.10
72802;BME280;61891;55.818;37.084;2023-08-06T08:09:58;99778.03;;;32.08;38.87
72802;BME280;61891;55.818;37.084;2023-08-06T08:12:24;99745.28;;;31.97;38.87
72802;BME280;61891;55.818;37.084;2023-08-06T08:14:50;99762.31;;;32.13;38.48
72802;BME280;61891;55.818;37.084;2023-08-06T08:17:15;99765.50;;;32.20;38.21
72802;BME280;61891;55.818;37.084;2023-08-06T08:19:41;99748.66;;;32.27;37.95
72802;BME280;61891;55.818;37.084;2023-08-06T08:22:07;99765.28;;;32.49;37.92
72802;BME280;61891;55.818;37.084;2023-08-06T08:24:33;99772.66;;;32.67;37.99
72802;BME280;61891;55.818;37.084;2023-08-06T08:26:59;99759.19;;;32.52;37.16
72802;BME280;61891;55.818;37.084;2023-08-06T08:29:24;99747.81;;;32.59;37.60
72802;BME280;61891;55.818;37.084;2023-08-06T08:31:50;99762.38;;;32.73;37.86
72802;BME280;61891;55.818;37.084;2023-08-06T08:34:17;99745.22;;;32.81;37.30
72802;BME280;61891;55.818;37.084;2023-08-06T08:36:43;99750.22;;;32.93;37.24
72802;BME280;61891;55.818;37.084;2023-08-06T08:39:09;99745.84;;;32.92;36.58
72802;BME280;61891;55.818;37.084;2023-08-06T08:41:36;99737.47;;;33.11;36.93
72802;BME280;61891;55.818;37.084;2023-08-06T08:44:03;99749.19;;;33.16;36.52
72802;BME280;61891;55.818;37.084;2023-08-06T08:46:31;99740.03;;;33.07;36.50
72802;BME280;61891;55.818;37.084;2023-08-06T08:48:58;99756.22;;;33.09;36.25
72802;BME280;61891;55.818;37.084;2023-08-06T08:51:28;99760.19;;;33.16;36.48
72802;BME280;61891;55.818;37.084;2023-08-06T08:53:55;99741.47;;;33.32;36.11
72802;BME280;61891;55.818;37.084;2023-08-06T08:56:24;99761.78;;;33.94;35.09
72802;BME280;61891;55.818;37.084;2023-08-06T08:58:50;99764.28;;;34.49;35.01
72802;BME280;61891;55.818;37.084;2023-08-06T09:01:24;99754.19;;;34.76;33.34
72802;BME280;61891;55.818;37.084;2023-08-06T09:03:51;99758.09;;;35.14;33.06
72802;BME280;61891;55.818;37.084;2023-08-06T09:06:20;99755.69;;;35.30;32.17
72802;BME280;61891;55.818;37.084;2023-08-06T09:08:51;99729.25;;;35.29;32.68
72802;BME280;61891;55.818;37.084;2023-08-06T09:11:20;99753.31;;;35.72;31.39
72802;BME280;61891;55.818;37.084;2023-08-06T09:13:47;99732.25;;;35.84;31.89
72802;BME280;61891;55.818;37.084;2023-08-06T09:16:13;99720.69;;;36.17;31.68
72802;BME280;61891;55.818;37.084;2023-08-06T09:18:39;99749.53;;;36.63;31.22
72802;BME280;61891;55.818;37.084;2023-08-06T09:21:05;99754.44;;;36.95;30.77
72802;BME280;61891;55.818;37.084;2023-08-06T09:23:31;99723.81;;;37.09;30.77
72802;BME280;61891;55.818;37.084;2023-08-06T09:25:59;99752.22;;;37.48;29.95
72802;BME280;61891;55.818;37.084;2023-08-06T09:28:45;99748.81;;;37.42;29.52
72802;BME280;61891;55.818;37.084;2023-08-06T09:31:11;99739.13;;;37.57;29.65
72802;BME280;61891;55.818;37.084;2023-08-06T09:33:37;99743.63;;;37.61;29.74
72802;BME280;61891;55.818;37.084;2023-08-06T09:36:10;99731.34;;;37.00;29.99
72802;BME280;61891;55.818;37.084;2023-08-06T09:38:40;99734.47;;;37.19;29.88
72802;BME280;61891;55.818;37.084;2023-08-06T09:41:07;99721.56;;;37.53;30.26
72802;BME280;61891;55.818;37.084;2023-08-06T09:43:42;99720.03;;;37.85;28.63
72802;BME280;61891;55.818;37.084;2023-08-06T09:46:13;99726.78;;;38.29;28.51
72802;BME280;61891;55.818;37.084;2023-08-06T09:48:40;99703.41;;;38.63;28.20
72802;BME280;61891;55.818;37.084;2023-08-06T09:51:08;99708.03;;;38.71;27.64
72802;BME280;61891;55.818;37.084;2023-08-06T09:53:34;99722.34;;;38.85;27.41
72802;BME280;61891;55.818;37.084;2023-08-06T09:56:01;99717.38;;;39.03;27.61
72802;BME280;61891;55.818;37.084;2023-08-06T09:58:27;99719.47;;;39.71;27.64
72802;BME280;61891;55.818;37.084;2023-08-06T10:00:54;99694.53;;;39.06;27.61
72802;BME280;61891;55.818;37.084;2023-08-06T10:03:20;99689.31;;;38.92;28.23
72802;BME280;61891;55.818;37.084;2023-08-06T10:05:46;99689.72;;;39.43;27.84
72802;BME280;61891;55.818;37.084;2023-08-06T10:08:12;99702.94;;;40.02;27.57
72802;BME280;61891;55.818;37.084;2023-08-06T10:10:38;99695.44;;;39.90;27.39
72802;BME280;61891;55.818;37.084;2023-08-06T10:13:05;99668.00;;;40.33;26.51
72802;BME280;61891;55.818;37.084;2023-08-06T10:15:32;99683.53;;;40.97;26.48
72802;BME280;61891;55.818;37.084;2023-08-06T10:17:59;99683.31;;;41.60;25.78
72802;BME280;61891;55.818;37.084;2023-08-06T10:20:26;99687.03;;;41.64;25.26
72802;BME280;61891;55.818;37.084;2023-08-06T10:25:30;99680.94;;;41.77;23.79
72802;BME280;61891;55.818;37.084;2023-08-06T10:27:56;99672.97;;;42.18;24.53
72802;BME280;61891;55.818;37.084;2023-08-06T10:32:56;99658.44;;;41.86;23.03
72802;BME280;61891;55.818;37.084;2023-08-06T10:35:47;99636.28;;;41.35;22.67
72802;BME280;61891;55.818;37.084;2023-08-06T10:38:20;99645.44;;;41.55;23.36
72802;BME280;61891;55.818;37.084;2023-08-06T10:43:28;99656.50;;;41.32;22.69
72802;BME280;61891;55.818;37.084;2023-08-06T10:45:54;99660.94;;;41.72;22.99
72802;BME280;61891;55.818;37.084;2023-08-06T10:48:37;99669.41;;;41.98;22.00
72802;BME280;61891;55.818;37.084;2023-08-06T10:51:09;99660.25;;;41.98;22.30
72802;BME280;61891;55.818;37.084;2023-08-06T10:53:36;99674.88;;;42.37;21.72
72802;BME280;61891;55.818;37.084;2023-08-06T10:56:18;99665.63;;;42.78;22.49
72802;BME280;61891;55.818;37.084;2023-08-06T10:58:46;99653.38;;;43.39;22.19
72802;BME280;61891;55.818;37.084;2023-08-06T11:01:12;99652.13;;;43.67;21.79
72802;BME280;61891;55.818;37.084;2023-08-06T11:03:39;99657.63;;;43.63;20.56
72802;BME280;61891;55.818;37.084;2023-08-06T11:06:09;99674.22;;;43.49;21.35
72802;BME280;61891;55.818;37.084;2023-08-06T11:08:37;99657.84;;;43.18;21.33
72802;BME280;61891;55.818;37.084;2023-08-06T11:11:11;99666.50;;;43.69;21.01
72802;BME280;61891;55.818;37.084;2023-08-06T11:13:42;99657.19;;;44.35;20.81
72802;BME280;61891;55.818;37.084;2023-08-06T11:16:09;99671.88;;;45.32;20.49
72802;BME280;61891;55.818;37.084;2023-08-06T11:18:35;99658.81;;;44.40;20.23
72802;BME280;61891;55.818;37.084;2023-08-06T11:21:02;99671.81;;;43.81;20.89
72802;BME280;61891;55.818;37.084;2023-08-06T11:23:28;99639.91;;;43.49;21.00
72802;BME280;61891;55.818;37.084;2023-08-06T11:25:58;99652.81;;;43.27;21.19
72802;BME280;61891;55.818;37.084;2023-08-06T11:28:24;99653.19;;;43.25;21.05
72802;BME280;61891;55.818;37.084;2023-08-06T11:30:50;99655.63;;;43.64;21.33
72802;BME280;61891;55.818;37.084;2023-08-06T11:33:23;99646.78;;;44.32;20.30
72802;BME280;61891;55.818;37.084;2023-08-06T11:35:52;99643.00;;;44.58;20.17
72802;BME280;61891;55.818;37.084;2023-08-06T11:38:18;99643.88;;;45.35;20.14
72802;BME280;61891;55.818;37.084;2023-08-06T11:40:44;99638.91;;;46.15;19.33
72802;BME280;61891;55.818;37.084;2023-08-06T11:43:12;99644.13;;;46.31;19.40
72802;BME280;61891;55.818;37.084;2023-08-06T11:45:38;99644.44;;;45.80;19.64
72802;BME280;61891;55.818;37.084;2023-08-06T11:48:05;99612.16;;;44.44;20.01
72802;BME280;61891;55.818;37.084;2023-08-06T11:50:31;99635.38;;;43.07;20.58
72802;BME280;61891;55.818;37.084;2023-08-06T11:53:00;99635.38;;;42.81;21.22
72802;BME280;61891;55.818;37.084;2023-08-06T11:55:27;99616.72;;;41.90;22.24
72802;BME280;61891;55.818;37.084;2023-08-06T11:57:54;99629.00;;;42.08;21.83
72802;BME280;61891;55.818;37.084;2023-08-06T12:00:23;99626.84;;;42.21;21.90
72802;BME280;61891;55.818;37.084;2023-08-06T12:02:50;99637.81;;;41.52;22.21
72802;BME280;61891;55.818;37.084;2023-08-06T12:05:19;99602.47;;;40.79;23.21
72802;BME280;61891;55.818;37.084;2023-08-06T12:07:55;99617.69;;;42.20;22.54
72802;BME280;61891;55.818;37.084;2023-08-06T12:10:22;99616.22;;;41.26;23.13
72802;BME280;61891;55.818;37.084;2023-08-06T12:12:49;99602.47;;;41.72;23.00
72802;BME280;61891;55.818;37.084;2023-08-06T12:15:17;99603.59;;;43.49;21.97
72802;BME280;61891;55.818;37.084;2023-08-06T12:17:43;99602.16;;;44.43;21.33
72802;BME280;61891;55.818;37.084;2023-08-06T12:20:10;99605.59;;;45.60;20.50
72802;BME280;61891;55.818;37.084;2023-08-06T12:22:36;99605.25;;;46.62;20.16
72802;BME280;61891;55.818;37.084;2023-08-06T12:25:06;99607.66;;;46.17;20.02
72802;BME280;61891;55.818;37.084;2023-08-06T12:27:35;99599.25;;;46.56;19.88
72802;BME280;61891;55.818;37.084;2023-08-06T12:30:01;99621.38;;;45.17;20.44
72802;BME280;61891;55.818;37.084;2023-08-06T12:32:35;99605.00;;;43.32;20.56
72802;BME280;61891;55.818;37.084;2023-08-06T12:35:01;99597.25;;;44.33;20.30
72802;BME280;61891;55.818;37.084;2023-08-06T12:37:32;99607.41;;;43.03;21.03
72802;BME280;61891;55.818;37.084;2023-08-06T12:39:58;99599.34;;;41.19;22.30
72802;BME280;61891;55.818;37.084;2023-08-06T12:42:24;99615.00;;;40.88;22.61
72802;BME280;61891;55.818;37.084;2023-08-06T12:44:50;99598.88;;;40.63;22.95
72802;BME280;61891;55.818;37.084;2023-08-06T12:47:16;99597.06;;;40.35;23.40
72802;BME280;61891;55.818;37.084;2023-08-06T12:49:42;99599.88;;;41.05;23.16
72802;BME280;61891;55.818;37.084;2023-08-06T12:52:08;99597.25;;;41.32;22.67
72802;BME280;61891;55.818;37.084;2023-08-06T12:54:35;99578.53;;;41.90;22.34
72802;BME280;61891;55.818;37.084;2023-08-06T12:57:05;99572.72;;;42.74;21.44
72802;BME280;61891;55.818;37.084;2023-08-06T12:59:31;99598.41;;;43.47;21.32
72802;BME280;61891;55.818;37.084;2023-08-06T13:02:00;99595.97;;;44.75;20.88
72802;BME280;61891;55.818;37.084;2023-08-06T13:04:26;99594.34;;;45.53;19.96
72802;BME280;61891;55.818;37.084;2023-08-06T13:06:53;99581.59;;;45.91;19.16